createdAt,value
2023-01-19T00:02:51.234Z,3.78
2023-01-19T00:05:57.665Z,3.70
2023-01-19T00:09:04.085Z,3.70
2023-01-19T00:12:11.460Z,3.70
2023-01-19T00:15:17.821Z,3.70
2023-01-19T00:18:24.845Z,3.70
2023-01-19T00:21:31.103Z,3.70
2023-01-19T00:24:37.543Z,3.78
2023-01-19T00:27:50.198Z,3.78
2023-01-19T00:30:56.569Z,3.78
2023-01-19T00:34:03.305Z,3.76
2023-01-19T00:37:10.813Z,3.74
2023-01-19T00:40:18.107Z,3.70
2023-01-19T00:43:24.582Z,3.80
2023-01-19T00:46:30.780Z,3.80
2023-01-19T00:49:37.032Z,3.80
2023-01-19T00:52:44.694Z,3.80
2023-01-19T00:55:51.417Z,3.80
2023-01-19T00:58:57.664Z,3.80
2023-01-19T01:02:04.577Z,3.80
2023-01-19T01:05:13.874Z,3.74
2023-01-19T01:08:19.975Z,3.70
2023-01-19T01:11:26.615Z,3.66
2023-01-19T01:14:33.070Z,3.60
2023-01-19T01:17:47.842Z,3.58
2023-01-19T01:20:56.247Z,3.50
2023-01-19T01:24:02.966Z,3.48
2023-01-19T01:27:09.454Z,3.40
2023-01-19T01:30:17.847Z,3.40
2023-01-19T01:33:39.978Z,3.40
2023-01-19T01:36:48.179Z,3.30
2023-01-19T01:39:54.383Z,3.30
2023-01-19T01:43:01.993Z,3.26
2023-01-19T01:46:08.979Z,3.20
2023-01-19T01:49:18.829Z,3.14
2023-01-19T01:52:27.909Z,3.10
2023-01-19T01:55:36.952Z,3.10
2023-01-19T01:58:43.376Z,3.10
2023-01-19T02:02:07.825Z,3.06
2023-01-19T02:05:17.827Z,3.00
2023-01-19T02:08:47.116Z,3.08
2023-01-19T02:12:16.245Z,3.10
2023-01-19T02:15:23.333Z,3.10
2023-01-19T02:18:32.131Z,3.10
2023-01-19T02:21:46.023Z,3.10
2023-01-19T02:24:52.938Z,3.10
2023-01-19T02:28:03.903Z,3.10
2023-01-19T02:31:10.739Z,3.10
2023-01-19T02:34:19.913Z,3.00
2023-01-19T02:37:27.879Z,3.00
2023-01-19T02:40:34.796Z,3.00
2023-01-19T02:43:42.920Z,2.90
2023-01-19T02:46:49.391Z,2.90
2023-01-19T02:49:59.728Z,2.84
2023-01-19T02:53:14.897Z,2.80
2023-01-19T02:56:43.170Z,2.70
2023-01-19T03:00:01.220Z,2.70
2023-01-19T03:03:24.566Z,2.60
2023-01-19T03:06:44.182Z,2.50
2023-01-19T03:09:56.795Z,2.40
2023-01-19T03:13:11.789Z,2.38
2023-01-19T03:16:22.900Z,2.30
2023-01-19T03:19:34.216Z,2.30
2023-01-19T03:22:40.736Z,2.20
2023-01-19T03:25:50.835Z,2.10
2023-01-19T03:29:00.890Z,2.10
2023-01-19T03:32:12.757Z,2.10
2023-01-19T03:35:21.948Z,2.06
2023-01-19T03:38:30.337Z,2.00
2023-01-19T03:41:37.840Z,1.92
2023-01-19T03:44:47.080Z,1.90
2023-01-19T03:47:53.541Z,1.80
2023-01-19T03:50:59.991Z,1.70
2023-01-19T03:57:27.378Z,1.50
2023-01-19T04:00:34.793Z,1.40
2023-01-19T04:03:41.534Z,1.40
2023-01-19T04:06:47.908Z,1.30
2023-01-19T04:09:54.192Z,1.28
2023-01-19T04:13:04.636Z,1.20
2023-01-19T04:16:12.596Z,1.20
2023-01-19T04:19:18.772Z,1.20
2023-01-19T04:22:25.211Z,1.18
2023-01-19T04:25:31.504Z,1.12
2023-01-19T04:28:39.928Z,1.10
2023-01-19T04:31:46.452Z,1.10
2023-01-19T04:34:54.474Z,1.10
2023-01-19T04:38:00.919Z,1.10
2023-01-19T04:41:07.852Z,1.10
2023-01-19T04:44:14.659Z,1.10
2023-01-19T04:47:21.808Z,1.10
2023-01-19T04:50:28.343Z,1.10
2023-01-19T04:53:35.182Z,1.10
2023-01-19T04:56:42.002Z,1.10
2023-01-19T04:59:48.729Z,1.10
2023-01-19T05:02:54.997Z,1.10
2023-01-19T05:06:01.351Z,1.10
2023-01-19T05:09:09.178Z,1.10
2023-01-19T05:12:15.442Z,1.10
2023-01-19T05:15:21.960Z,1.12
2023-01-19T05:18:28.573Z,1.16
2023-01-19T05:21:35.008Z,1.20
2023-01-19T05:24:41.396Z,1.20
2023-01-19T05:27:47.770Z,1.20
2023-01-19T05:30:54.880Z,1.20
2023-01-19T05:34:01.195Z,1.30
2023-01-19T05:37:08.174Z,1.30
2023-01-19T05:40:15.600Z,1.34
2023-01-19T05:43:22.356Z,1.40
2023-01-19T05:46:28.888Z,1.40
2023-01-19T05:49:36.262Z,1.40
2023-01-19T05:52:42.459Z,1.40
2023-01-19T05:55:48.798Z,1.40
2023-01-19T05:58:55.258Z,1.40
2023-01-19T06:02:01.656Z,1.40
2023-01-19T06:05:09.146Z,1.50
2023-01-19T06:08:15.641Z,1.50
2023-01-19T06:11:22.285Z,1.50
2023-01-19T06:14:28.887Z,1.50
2023-01-19T06:17:36.437Z,1.54
2023-01-19T06:20:43.031Z,1.60
2023-01-19T06:23:49.391Z,1.60
2023-01-19T06:26:56.167Z,1.64
2023-01-19T06:30:02.518Z,1.70
2023-01-19T06:33:09.311Z,1.70
2023-01-19T06:36:15.574Z,1.72
2023-01-19T06:39:21.886Z,1.80
2023-01-19T06:42:28.525Z,1.80
2023-01-19T06:45:35.026Z,1.90
2023-01-19T06:48:41.382Z,1.90
2023-01-19T06:51:47.890Z,1.94
2023-01-19T06:54:53.929Z,2.00
2023-01-19T06:58:02.954Z,2.00
2023-01-19T07:01:10.057Z,2.06
2023-01-19T07:04:16.686Z,2.10
2023-01-19T07:07:22.907Z,2.10
2023-01-19T07:11:23.583Z,2.20
2023-01-19T07:13:57.099Z,2.20
2023-01-19T07:17:03.391Z,2.20
2023-01-19T07:20:14.406Z,2.20
2023-01-19T07:23:21.273Z,2.24
2023-01-19T07:26:28.291Z,2.30
2023-01-19T07:29:34.809Z,2.30
2023-01-19T07:32:42.738Z,2.30
2023-01-19T07:35:51.290Z,2.30
2023-01-19T07:38:57.791Z,2.30
2023-01-19T07:42:04.377Z,2.30
2023-01-19T07:45:12.292Z,2.30
2023-01-19T07:48:18.615Z,2.30
2023-01-19T07:51:25.441Z,2.30
2023-01-19T07:54:33.971Z,2.30
2023-01-19T07:57:40.867Z,2.30
2023-01-19T08:00:50.947Z,2.30
2023-01-19T08:03:57.533Z,2.30
2023-01-19T08:07:04.438Z,2.30
2023-01-19T08:10:12.514Z,2.30
2023-01-19T08:13:19.151Z,2.30
2023-01-19T08:16:25.467Z,2.30
2023-01-19T08:19:32.370Z,2.30
2023-01-19T08:22:38.968Z,2.30
2023-01-19T08:25:46.347Z,2.30
2023-01-19T08:28:52.520Z,2.30
2023-01-19T08:32:00.416Z,2.32
2023-01-19T08:35:08.211Z,2.36
2023-01-19T08:38:14.681Z,2.34
2023-01-19T08:41:21.156Z,2.32
2023-01-19T08:44:28.129Z,2.30
2023-01-19T08:47:34.244Z,2.30
2023-01-19T08:50:40.963Z,2.30
2023-01-19T08:53:47.225Z,2.30
2023-01-19T08:56:53.723Z,2.30
2023-01-19T08:59:59.890Z,2.30
2023-01-19T09:03:07.934Z,2.30
2023-01-19T09:06:19.480Z,2.30
2023-01-19T09:09:26.047Z,2.30
2023-01-19T09:12:32.315Z,2.30
2023-01-19T09:15:38.827Z,2.22
2023-01-19T09:18:46.287Z,2.20
2023-01-19T09:21:54.702Z,2.16
2023-01-19T09:25:01.581Z,2.10
2023-01-19T09:28:09.491Z,2.10
2023-01-19T09:31:16.447Z,2.04
2023-01-19T09:34:23.903Z,2.00
2023-01-19T09:37:30.128Z,2.00
2023-01-19T09:40:37.028Z,2.00
2023-01-19T09:43:47.920Z,2.00
2023-01-19T09:46:54.378Z,1.90
2023-01-19T09:50:06.816Z,1.90
2023-01-19T09:53:19.214Z,1.90
2023-01-19T09:56:26.153Z,1.80
2023-01-19T09:59:34.369Z,1.80
2023-01-19T10:02:45.674Z,1.80
2023-01-19T10:05:56.272Z,1.70
2023-01-19T10:09:13.539Z,1.70
2023-01-19T10:12:28.837Z,1.70
2023-01-19T10:15:46.341Z,1.70
2023-01-19T10:18:54.973Z,1.70
2023-01-19T10:22:06.593Z,1.70
2023-01-19T10:25:20.082Z,1.70
2023-01-19T10:28:27.962Z,1.70
2023-01-19T10:31:39.057Z,1.70
2023-01-19T10:34:45.363Z,1.70
2023-01-19T10:37:52.343Z,1.70
2023-01-19T10:41:05.229Z,1.70
2023-01-19T10:44:13.615Z,1.70
2023-01-19T10:47:25.523Z,1.68
2023-01-19T10:50:33.804Z,1.60
2023-01-19T10:53:40.469Z,1.60
2023-01-19T10:56:55.398Z,1.60
2023-01-19T11:00:01.950Z,1.58
2023-01-19T11:03:25.787Z,1.58
2023-01-19T11:06:34.104Z,1.54
2023-01-19T11:09:40.674Z,1.60
2023-01-19T11:12:54.021Z,1.58
2023-01-19T11:16:06.093Z,1.52
2023-01-19T11:19:25.705Z,1.50
2023-01-19T11:22:34.332Z,1.50
2023-01-19T11:25:41.347Z,1.50
2023-01-19T11:28:52.071Z,1.50
2023-01-19T11:32:10.277Z,1.50
2023-01-19T11:35:40.474Z,1.50
2023-01-19T11:38:50.624Z,1.52
2023-01-19T11:42:01.735Z,1.58
2023-01-19T11:45:14.197Z,1.60
2023-01-19T11:48:28.653Z,1.60
2023-01-19T11:51:41.233Z,1.60
2023-01-19T11:54:55.921Z,1.54
2023-01-19T11:58:04.195Z,1.52
2023-01-19T12:01:18.303Z,1.54
2023-01-19T12:04:29.510Z,1.54
2023-01-19T12:07:37.651Z,1.52
2023-01-19T12:10:48.637Z,1.50
2023-01-19T12:13:56.057Z,1.50
2023-01-19T12:17:04.833Z,1.52
2023-01-19T12:20:23.181Z,1.52
2023-01-19T12:23:42.392Z,1.50
2023-01-19T12:26:54.413Z,1.50
2023-01-19T12:33:38.652Z,1.50
2023-01-19T12:36:45.403Z,1.50
2023-01-19T12:39:52.315Z,1.50
2023-01-19T12:43:17.890Z,1.50
2023-01-19T12:46:32.855Z,1.44
2023-01-19T12:49:46.764Z,1.42
2023-01-19T12:52:57.571Z,1.46
2023-01-19T12:56:16.297Z,1.50
2023-01-19T12:59:28.694Z,1.50
2023-01-19T13:02:45.348Z,1.50
2023-01-19T13:05:55.293Z,1.50
2023-01-19T13:09:04.752Z,1.50
2023-01-19T13:12:19.774Z,1.50
2023-01-19T13:15:37.747Z,1.50
2023-01-19T13:18:48.591Z,1.50
2023-01-19T13:21:56.536Z,1.50
2023-01-19T13:25:24.246Z,1.50
2023-01-19T13:28:34.790Z,1.50
2023-01-19T13:31:44.958Z,1.50
2023-01-19T13:34:57.641Z,1.48
2023-01-19T13:38:04.823Z,1.50
2023-01-19T13:41:11.330Z,1.48
2023-01-19T13:44:19.697Z,1.48
2023-01-19T13:47:31.036Z,1.40
2023-01-19T13:50:38.782Z,1.40
2023-01-19T13:53:56.854Z,1.40
2023-01-19T13:57:02.988Z,1.42
2023-01-19T14:00:20.079Z,1.46
2023-01-19T14:03:27.291Z,1.44
2023-01-19T14:06:40.024Z,1.48
2023-01-19T14:09:46.431Z,1.40
2023-01-19T14:13:03.476Z,1.40
2023-01-19T14:16:17.071Z,1.34
2023-01-19T14:19:24.083Z,1.30
2023-01-19T14:22:46.523Z,1.30
2023-01-19T14:25:52.984Z,1.20
2023-01-19T14:28:59.663Z,1.20
2023-01-19T14:32:28.681Z,1.10
2023-01-19T14:35:36.070Z,1.10
2023-01-19T14:38:46.530Z,1.10
2023-01-19T14:41:55.610Z,1.00
2023-01-19T14:45:04.168Z,1.00
2023-01-19T14:48:19.050Z,1.00
2023-01-19T14:51:28.357Z,1.00
2023-01-19T14:54:39.877Z,1.00
2023-01-19T14:57:46.058Z,1.00
2023-01-19T15:00:55.774Z,1.00
2023-01-19T15:04:02.588Z,1.00
2023-01-19T15:07:13.173Z,1.00
2023-01-19T15:10:22.837Z,1.00
2023-01-19T15:13:29.932Z,1.00
2023-01-19T15:16:37.305Z,1.00
2023-01-19T15:19:43.401Z,1.00
2023-01-19T15:22:50.235Z,1.00
2023-01-19T15:26:02.449Z,1.00
2023-01-19T15:29:21.818Z,1.00
2023-01-19T15:32:28.323Z,1.00
2023-01-19T15:35:35.139Z,1.00
2023-01-19T15:38:41.567Z,1.00
2023-01-19T15:41:48.179Z,1.00
2023-01-19T15:44:55.986Z,1.00
2023-01-19T15:48:03.985Z,1.00
2023-01-19T15:51:14.806Z,1.00
2023-01-19T15:54:21.688Z,1.00
2023-01-19T15:57:28.665Z,1.00
2023-01-19T16:00:36.842Z,1.00
2023-01-19T16:03:43.698Z,1.00
2023-01-19T16:06:50.964Z,1.00
2023-01-19T16:09:57.855Z,1.00
2023-01-19T16:13:04.905Z,1.00
2023-01-19T16:16:28.431Z,1.00
2023-01-19T16:19:35.325Z,1.00
2023-01-19T16:22:41.749Z,1.00
2023-01-19T16:25:58.774Z,1.00
2023-01-19T16:29:09.945Z,1.00
2023-01-19T16:32:17.085Z,1.00
2023-01-19T16:35:23.533Z,0.98
2023-01-19T16:38:32.803Z,0.94
2023-01-19T16:41:40.322Z,0.92
2023-01-19T16:44:46.790Z,0.90
2023-01-19T16:47:53.194Z,0.92
2023-01-19T16:51:08.036Z,0.90
2023-01-19T16:54:16.281Z,0.92
2023-01-19T16:57:22.688Z,0.90
2023-01-19T17:00:29.204Z,0.90
2023-01-19T17:03:35.975Z,0.90
2023-01-19T17:06:42.825Z,0.90
2023-01-19T17:09:49.611Z,0.90
2023-01-19T17:12:55.919Z,0.90
2023-01-19T17:16:06.625Z,0.90
2023-01-19T17:19:17.797Z,0.90
2023-01-19T17:22:23.942Z,0.88
2023-01-19T17:25:30.573Z,0.82
2023-01-19T17:28:37.037Z,0.80
2023-01-19T17:31:45.242Z,0.80
2023-01-19T17:34:55.740Z,0.80
2023-01-19T17:38:02.202Z,0.80
2023-01-19T17:41:15.647Z,0.80
2023-01-19T17:44:22.257Z,0.80
2023-01-19T17:47:28.894Z,0.70
2023-01-19T17:50:36.847Z,0.70
2023-01-19T17:53:44.119Z,0.70
2023-01-19T17:56:51.059Z,0.70
2023-01-19T17:59:57.491Z,0.70
2023-01-19T18:03:05.874Z,0.70
2023-01-19T18:06:13.987Z,0.62
2023-01-19T18:09:20.886Z,0.60
2023-01-19T18:12:27.489Z,0.60
2023-01-19T18:15:34.256Z,0.60
2023-01-19T18:18:41.311Z,0.60
2023-01-19T18:21:48.478Z,0.60
2023-01-19T18:24:54.751Z,0.58
2023-01-19T18:28:00.837Z,0.56
2023-01-19T18:31:10.268Z,0.50
2023-01-19T18:34:16.750Z,0.50
2023-01-19T18:37:23.940Z,0.50
2023-01-19T18:40:30.619Z,0.50
2023-01-19T18:43:37.689Z,0.50
2023-01-19T18:46:44.487Z,0.50
2023-01-19T18:49:50.937Z,0.50
2023-01-19T18:52:57.497Z,0.48
2023-01-19T18:56:04.801Z,0.42
2023-01-19T18:59:11.994Z,0.40
2023-01-19T19:02:18.426Z,0.40
2023-01-19T19:05:25.157Z,0.42
2023-01-19T19:08:31.243Z,0.40
2023-01-19T19:11:37.967Z,0.40
2023-01-19T19:14:47.410Z,0.40
2023-01-19T19:17:54.043Z,0.40
2023-01-19T19:21:00.370Z,0.40
2023-01-19T19:24:08.114Z,0.40
2023-01-19T19:27:14.539Z,0.36
2023-01-19T19:30:23.444Z,0.30
2023-01-19T19:33:31.262Z,0.30
2023-01-19T19:36:39.281Z,0.30
2023-01-19T19:39:45.974Z,0.30
2023-01-19T19:42:52.954Z,0.30
2023-01-19T19:46:04.511Z,0.20
2023-01-19T19:49:11.594Z,0.22
2023-01-19T19:52:18.325Z,0.20
2023-01-19T19:55:24.584Z,0.20
2023-01-19T19:58:31.929Z,0.20
2023-01-19T20:01:40.058Z,0.20
2023-01-19T20:04:47.032Z,0.20
2023-01-19T20:07:53.953Z,0.20
2023-01-19T20:11:08.168Z,0.20
2023-01-19T20:17:26.342Z,0.10
2023-01-19T20:20:36.107Z,0.10
2023-01-19T20:23:43.469Z,0.10
2023-01-19T20:26:52.583Z,0.10
2023-01-19T20:29:59.202Z,0.10
2023-01-19T20:33:05.960Z,0.10
2023-01-19T20:36:13.864Z,0.10
2023-01-19T20:39:22.495Z,0.10
2023-01-19T20:42:28.907Z,0.10
2023-01-19T20:45:35.885Z,0.10
2023-01-19T20:48:42.538Z,0.10
2023-01-19T20:51:50.276Z,0.04
2023-01-19T20:54:57.107Z,0.08
2023-01-19T20:58:03.597Z,0.02
2023-01-19T21:01:17.994Z,0.00
2023-01-19T21:04:26.041Z,0.00
2023-01-19T21:07:32.341Z,0.00
2023-01-19T21:10:39.491Z,0.00
2023-01-19T21:13:46.082Z,0.00
2023-01-19T21:16:56.842Z,0.00
2023-01-19T21:20:03.153Z,0.00
2023-01-19T21:23:10.096Z,0.00
2023-01-19T21:26:17.186Z,0.00
2023-01-19T21:29:23.645Z,0.00
2023-01-19T21:32:30.011Z,0.00
2023-01-19T21:35:36.618Z,0.00
2023-01-19T21:38:42.875Z,0.02
2023-01-19T21:41:49.737Z,0.06
2023-01-19T21:44:56.213Z,0.02
2023-01-19T21:48:02.924Z,0.04
2023-01-19T21:51:10.413Z,0.04
2023-01-19T21:54:17.020Z,0.08
2023-01-19T21:57:23.318Z,0.10
2023-01-19T22:00:31.146Z,0.10
2023-01-19T22:03:37.434Z,0.10
2023-01-19T22:06:44.023Z,0.10
2023-01-19T22:09:50.329Z,0.10
2023-01-19T22:12:57.350Z,0.10
2023-01-19T22:16:04.680Z,0.10
2023-01-19T22:19:14.700Z,0.10
2023-01-19T22:22:21.717Z,0.10
2023-01-19T22:25:28.845Z,0.18
2023-01-19T22:28:36.069Z,0.20
2023-01-19T22:31:43.352Z,0.20
2023-01-19T22:34:50.299Z,0.20
2023-01-19T22:37:56.491Z,0.20
2023-01-19T22:41:03.046Z,0.12
2023-01-19T22:44:12.808Z,0.10
2023-01-19T22:47:19.243Z,0.14
2023-01-19T22:50:25.631Z,0.12
2023-01-19T22:53:34.708Z,0.10
2023-01-19T22:56:42.274Z,0.10
2023-01-19T22:59:48.940Z,0.10
2023-01-19T23:02:55.456Z,0.10
2023-01-19T23:06:06.130Z,0.08
2023-01-19T23:09:14.823Z,0.04
2023-01-19T23:12:21.382Z,0.00
2023-01-19T23:15:27.989Z,0.00
2023-01-19T23:18:36.254Z,0.00
2023-01-19T23:21:43.585Z,0.00
2023-01-19T23:24:50.532Z,0.00
2023-01-19T23:27:56.917Z,-0.04
2023-01-19T23:31:13.663Z,-0.10
2023-01-19T23:34:20.199Z,-0.10
2023-01-19T23:37:26.525Z,-0.10
2023-01-19T23:40:33.213Z,-0.10
2023-01-19T23:43:41.083Z,-0.12
2023-01-19T23:46:47.531Z,-0.18
2023-01-19T23:49:53.691Z,-0.20
2023-01-19T23:53:00.702Z,-0.20
2023-01-19T23:56:17.503Z,-0.20
2023-01-19T23:59:26.895Z,-0.20
